sensor_id;sensor_type;location;lat;lon;timestamp;P1;durP1;ratioP1;P2;durP2;ratioP2
42854;SDS011;29183;48.038;14.346;2023-03-21T00:06:24;5.28;;;3.20;;
42854;SDS011;29183;48.038;14.346;2023-03-21T00:09:39;5.50;;;3.30;;
42854;SDS011;29183;48.038;14.346;2023-03-21T00:16:08;5.10;;;2.78;;
42854;SDS011;29183;48.038;14.346;2023-03-21T00:19:21;4.55;;;3.38;;
42854;SDS011;29183;48.038;14.346;2023-03-21T00:35:29;4.72;;;2.58;;
42854;SDS011;29183;48.038;14.346;2023-03-21T00:41:57;3.97;;;2.80;;
42854;SDS011;29183;48.038;14.346;2023-03-21T00:53:24;3.92;;;2.75;;
42854;SDS011;29183;48.038;14.346;2023-03-21T00:56:50;4.72;;;2.90;;
42854;SDS011;29183;48.038;14.346;2023-03-21T01:02:05;5.35;;;2.67;;
42854;SDS011;29183;48.038;14.346;2023-03-21T01:04:41;3.47;;;2.97;;
42854;SDS011;29183;48.038;14.346;2023-03-21T01:10:31;5.32;;;2.60;;
42854;SDS011;29183;48.038;14.346;2023-03-21T01:13:01;4.53;;;3.10;;
42854;SDS011;29183;48.038;14.346;2023-03-21T01:15:31;4.38;;;2.80;;
42854;SDS011;29183;48.038;14.346;2023-03-21T01:17:59;9.80;;;4.60;;
42854;SDS011;29183;48.038;14.346;2023-03-21T01:20:29;3.17;;;2.58;;
42854;SDS011;29183;48.038;14.346;2023-03-21T01:23:08;4.07;;;2.90;;
42854;SDS011;29183;48.038;14.346;2023-03-21T01:32:13;5.53;;;2.90;;
42854;SDS011;29183;48.038;14.346;2023-03-21T01:34:45;4.15;;;2.60;;
42854;SDS011;29183;48.038;14.346;2023-03-21T01:37:14;3.38;;;2.55;;
42854;SDS011;29183;48.038;14.346;2023-03-21T01:39:51;4.40;;;2.60;;
42854;SDS011;29183;48.038;14.346;2023-03-21T01:48:41;4.93;;;3.00;;
42854;SDS011;29183;48.038;14.346;2023-03-21T01:51:12;5.80;;;3.20;;
42854;SDS011;29183;48.038;14.346;2023-03-21T01:53:43;6.40;;;3.10;;
42854;SDS011;29183;48.038;14.346;2023-03-21T01:56:46;5.88;;;2.88;;
42854;SDS011;29183;48.038;14.346;2023-03-21T01:59:23;5.40;;;2.83;;
42854;SDS011;29183;48.038;14.346;2023-03-21T02:01:53;6.35;;;3.13;;
42854;SDS011;29183;48.038;14.346;2023-03-21T02:04:23;5.68;;;3.45;;
42854;SDS011;29183;48.038;14.346;2023-03-21T02:06:56;4.57;;;3.00;;
42854;SDS011;29183;48.038;14.346;2023-03-21T02:12:05;3.72;;;3.33;;
42854;SDS011;29183;48.038;14.346;2023-03-21T02:15:07;6.20;;;4.00;;
42854;SDS011;29183;48.038;14.346;2023-03-21T02:17:41;5.72;;;2.97;;
42854;SDS011;29183;48.038;14.346;2023-03-21T02:35:23;7.60;;;3.65;;
42854;SDS011;29183;48.038;14.346;2023-03-21T02:38:16;5.13;;;3.05;;
42854;SDS011;29183;48.038;14.346;2023-03-21T02:50:47;6.55;;;3.35;;
42854;SDS011;29183;48.038;14.346;2023-03-21T02:53:22;3.42;;;2.70;;
42854;SDS011;29183;48.038;14.346;2023-03-21T03:29:31;3.42;;;2.95;;
42854;SDS011;29183;48.038;14.346;2023-03-21T03:32:16;6.72;;;3.15;;
42854;SDS011;29183;48.038;14.346;2023-03-21T03:34:48;2.92;;;2.53;;
42854;SDS011;29183;48.038;14.346;2023-03-21T03:37:24;7.90;;;2.60;;
42854;SDS011;29183;48.038;14.346;2023-03-21T03:40:38;4.57;;;2.72;;
42854;SDS011;29183;48.038;14.346;2023-03-21T03:48:45;4.65;;;3.35;;
42854;SDS011;29183;48.038;14.346;2023-03-21T03:51:19;5.28;;;3.25;;
42854;SDS011;29183;48.038;14.346;2023-03-21T03:54:00;4.25;;;2.85;;
42854;SDS011;29183;48.038;14.346;2023-03-21T03:56:41;5.25;;;2.95;;
42854;SDS011;29183;48.038;14.346;2023-03-21T03:59:19;4.57;;;3.15;;
42854;SDS011;29183;48.038;14.346;2023-03-21T04:09:09;4.55;;;2.95;;
42854;SDS011;29183;48.038;14.346;2023-03-21T04:15:16;4.97;;;3.10;;
42854;SDS011;29183;48.038;14.346;2023-03-21T04:18:08;3.55;;;2.85;;
42854;SDS011;29183;48.038;14.346;2023-03-21T04:20:48;4.32;;;2.88;;
42854;SDS011;29183;48.038;14.346;2023-03-21T04:23:26;4.97;;;3.60;;
42854;SDS011;29183;48.038;14.346;2023-03-21T04:29:03;7.05;;;3.85;;
42854;SDS011;29183;48.038;14.346;2023-03-21T04:31:34;6.32;;;3.58;;
42854;SDS011;29183;48.038;14.346;2023-03-21T04:37:24;6.68;;;3.50;;
42854;SDS011;29183;48.038;14.346;2023-03-21T04:39:55;5.10;;;3.53;;
42854;SDS011;29183;48.038;14.346;2023-03-21T04:45:23;4.97;;;3.50;;
42854;SDS011;29183;48.038;14.346;2023-03-21T04:47:52;6.05;;;3.33;;
42854;SDS011;29183;48.038;14.346;2023-03-21T04:53:51;6.80;;;3.35;;
42854;SDS011;29183;48.038;14.346;2023-03-21T04:56:39;4.43;;;3.33;;
42854;SDS011;29183;48.038;14.346;2023-03-21T04:59:22;5.55;;;3.22;;
42854;SDS011;29183;48.038;14.346;2023-03-21T05:08:59;5.53;;;3.65;;
42854;SDS011;29183;48.038;14.346;2023-03-21T05:17:56;6.70;;;3.20;;
42854;SDS011;29183;48.038;14.346;2023-03-21T05:20:49;4.53;;;2.92;;
42854;SDS011;29183;48.038;14.346;2023-03-21T05:23:27;8.27;;;3.50;;
42854;SDS011;29183;48.038;14.346;2023-03-21T05:28:44;4.13;;;3.25;;
42854;SDS011;29183;48.038;14.346;2023-03-21T05:31:21;8.27;;;3.50;;
42854;SDS011;29183;48.038;14.346;2023-03-21T05:33:54;5.10;;;3.38;;
42854;SDS011;29183;48.038;14.346;2023-03-21T05:36:26;4.57;;;3.35;;
42854;SDS011;29183;48.038;14.346;2023-03-21T05:45:24;7.75;;;2.85;;
42854;SDS011;29183;48.038;14.346;2023-03-21T05:48:27;5.25;;;3.33;;
42854;SDS011;29183;48.038;14.346;2023-03-21T05:57:28;6.60;;;3.15;;
42854;SDS011;29183;48.038;14.346;2023-03-21T06:03:38;7.97;;;4.10;;
42854;SDS011;29183;48.038;14.346;2023-03-21T06:09:42;4.88;;;3.60;;
42854;SDS011;29183;48.038;14.346;2023-03-21T06:12:45;7.05;;;3.22;;
42854;SDS011;29183;48.038;14.346;2023-03-21T06:15:29;5.75;;;3.45;;
42854;SDS011;29183;48.038;14.346;2023-03-21T06:18:12;4.72;;;3.42;;
42854;SDS011;29183;48.038;14.346;2023-03-21T06:20:48;8.82;;;5.55;;
42854;SDS011;29183;48.038;14.346;2023-03-21T06:26:47;6.38;;;4.10;;
42854;SDS011;29183;48.038;14.346;2023-03-21T06:30:03;6.32;;;3.53;;
42854;SDS011;29183;48.038;14.346;2023-03-21T06:38:52;5.00;;;3.65;;
42854;SDS011;29183;48.038;14.346;2023-03-21T06:41:21;7.38;;;3.80;;
42854;SDS011;29183;48.038;14.346;2023-03-21T06:47:19;5.47;;;3.17;;
42854;SDS011;29183;48.038;14.346;2023-03-21T06:50:04;7.05;;;4.10;;
42854;SDS011;29183;48.038;14.346;2023-03-21T06:52:52;7.60;;;3.22;;
42854;SDS011;29183;48.038;14.346;2023-03-21T07:05:38;5.80;;;3.58;;
42854;SDS011;29183;48.038;14.346;2023-03-21T07:21:34;5.45;;;3.50;;
42854;SDS011;29183;48.038;14.346;2023-03-21T07:28:13;9.68;;;3.92;;
42854;SDS011;29183;48.038;14.346;2023-03-21T07:56:53;7.07;;;4.25;;
42854;SDS011;29183;48.038;14.346;2023-03-21T08:13:01;5.38;;;3.67;;
42854;SDS011;29183;48.038;14.346;2023-03-21T08:22:54;6.40;;;4.40;;
42854;SDS011;29183;48.038;14.346;2023-03-21T08:39:27;6.13;;;4.75;;
42854;SDS011;29183;48.038;14.346;2023-03-21T08:50:59;7.00;;;5.13;;
42854;SDS011;29183;48.038;14.346;2023-03-21T08:53:46;6.93;;;4.63;;
42854;SDS011;29183;48.038;14.346;2023-03-21T08:56:25;8.93;;;5.20;;
42854;SDS011;29183;48.038;14.346;2023-03-21T09:01:35;7.30;;;5.07;;
42854;SDS011;29183;48.038;14.346;2023-03-21T09:04:07;9.23;;;5.95;;
42854;SDS011;29183;48.038;14.346;2023-03-21T09:07:12;7.32;;;5.35;;
42854;SDS011;29183;48.038;14.346;2023-03-21T09:09:48;8.38;;;5.00;;
42854;SDS011;29183;48.038;14.346;2023-03-21T09:18:56;9.27;;;5.22;;
42854;SDS011;29183;48.038;14.346;2023-03-21T09:21:45;6.57;;;5.07;;
42854;SDS011;29183;48.038;14.346;2023-03-21T09:24:23;11.70;;;5.63;;
42854;SDS011;29183;48.038;14.346;2023-03-21T09:30:32;6.57;;;4.60;;
42854;SDS011;29183;48.038;14.346;2023-03-21T09:53:22;7.07;;;5.35;;
42854;SDS011;29183;48.038;14.346;2023-03-21T10:01:59;5.43;;;4.28;;
42854;SDS011;29183;48.038;14.346;2023-03-21T10:04:44;7.22;;;4.50;;
42854;SDS011;29183;48.038;14.346;2023-03-21T10:07:32;6.40;;;3.80;;
42854;SDS011;29183;48.038;14.346;2023-03-21T10:10:02;6.53;;;4.05;;
42854;SDS011;29183;48.038;14.346;2023-03-21T10:12:56;5.65;;;3.90;;
42854;SDS011;29183;48.038;14.346;2023-03-21T10:15:28;9.60;;;4.72;;
42854;SDS011;29183;48.038;14.346;2023-03-21T10:18:07;5.82;;;4.32;;
42854;SDS011;29183;48.038;14.346;2023-03-21T10:20:42;6.28;;;4.32;;
42854;SDS011;29183;48.038;14.346;2023-03-21T10:23:14;7.20;;;4.50;;
42854;SDS011;29183;48.038;14.346;2023-03-21T10:31:04;7.50;;;4.38;;
42854;SDS011;29183;48.038;14.346;2023-03-21T10:33:42;11.68;;;6.25;;
42854;SDS011;29183;48.038;14.346;2023-03-21T10:46:56;7.97;;;5.83;;
42854;SDS011;29183;48.038;14.346;2023-03-21T10:52:30;7.72;;;5.72;;
42854;SDS011;29183;48.038;14.346;2023-03-21T10:55:34;7.22;;;4.95;;
42854;SDS011;29183;48.038;14.346;2023-03-21T10:58:00;7.05;;;5.22;;
42854;SDS011;29183;48.038;14.346;2023-03-21T11:03:36;6.88;;;4.80;;
42854;SDS011;29183;48.038;14.346;2023-03-21T11:06:05;13.55;;;5.15;;
42854;SDS011;29183;48.038;14.346;2023-03-21T11:08:40;7.53;;;5.70;;
42854;SDS011;29183;48.038;14.346;2023-03-21T11:11:18;13.50;;;5.28;;
42854;SDS011;29183;48.038;14.346;2023-03-21T11:13:55;7.10;;;5.00;;
42854;SDS011;29183;48.038;14.346;2023-03-21T11:16:31;7.38;;;5.32;;
42854;SDS011;29183;48.038;14.346;2023-03-21T11:22:09;8.45;;;4.85;;
42854;SDS011;29183;48.038;14.346;2023-03-21T11:24:38;10.32;;;5.35;;
42854;SDS011;29183;48.038;14.346;2023-03-21T11:29:38;5.38;;;4.78;;
42854;SDS011;29183;48.038;14.346;2023-03-21T11:32:19;6.70;;;5.07;;
42854;SDS011;29183;48.038;14.346;2023-03-21T11:34:59;7.45;;;5.05;;
42854;SDS011;29183;48.038;14.346;2023-03-21T11:42:51;7.03;;;5.00;;
42854;SDS011;29183;48.038;14.346;2023-03-21T11:47:55;6.07;;;4.53;;
42854;SDS011;29183;48.038;14.346;2023-03-21T11:50:32;5.25;;;4.32;;
42854;SDS011;29183;48.038;14.346;2023-03-21T12:12:55;7.53;;;4.03;;
42854;SDS011;29183;48.038;14.346;2023-03-21T12:40:16;7.53;;;4.82;;
42854;SDS011;29183;48.038;14.346;2023-03-21T12:45:36;8.55;;;5.60;;
42854;SDS011;29183;48.038;14.346;2023-03-21T12:51:19;7.68;;;5.90;;
42854;SDS011;29183;48.038;14.346;2023-03-21T12:56:33;8.52;;;5.00;;
42854;SDS011;29183;48.038;14.346;2023-03-21T13:08:12;6.03;;;4.80;;
42854;SDS011;29183;48.038;14.346;2023-03-21T13:10:42;6.82;;;4.88;;
42854;SDS011;29183;48.038;14.346;2023-03-21T13:34:28;5.07;;;4.47;;
42854;SDS011;29183;48.038;14.346;2023-03-21T13:42:40;6.20;;;4.60;;
42854;SDS011;29183;48.038;14.346;2023-03-21T13:48:00;6.32;;;5.25;;
42854;SDS011;29183;48.038;14.346;2023-03-21T13:50:39;6.63;;;4.32;;
42854;SDS011;29183;48.038;14.346;2023-03-21T13:53:19;8.05;;;5.07;;
42854;SDS011;29183;48.038;14.346;2023-03-21T13:55:57;7.80;;;6.38;;
42854;SDS011;29183;48.038;14.346;2023-03-21T14:04:19;7.03;;;5.72;;
42854;SDS011;29183;48.038;14.346;2023-03-21T14:07:00;6.93;;;5.32;;
42854;SDS011;29183;48.038;14.346;2023-03-21T14:09:31;7.80;;;5.45;;
42854;SDS011;29183;48.038;14.346;2023-03-21T14:12:01;5.93;;;5.10;;
42854;SDS011;29183;48.038;14.346;2023-03-21T14:14:46;5.63;;;4.97;;
42854;SDS011;29183;48.038;14.346;2023-03-21T14:17:28;8.70;;;5.75;;
42854;SDS011;29183;48.038;14.346;2023-03-21T14:22:58;5.20;;;4.60;;
42854;SDS011;29183;48.038;14.346;2023-03-21T14:30:59;4.43;;;4.03;;
42854;SDS011;29183;48.038;14.346;2023-03-21T14:33:31;4.88;;;4.38;;
42854;SDS011;29183;48.038;14.346;2023-03-21T14:36:03;5.65;;;4.63;;
42854;SDS011;29183;48.038;14.346;2023-03-21T14:38:41;5.35;;;4.72;;
42854;SDS011;29183;48.038;14.346;2023-03-21T14:41:23;7.13;;;4.43;;
42854;SDS011;29183;48.038;14.346;2023-03-21T14:49:21;6.30;;;4.82;;
42854;SDS011;29183;48.038;14.346;2023-03-21T14:51:51;7.88;;;5.43;;
42854;SDS011;29183;48.038;14.346;2023-03-21T14:54:29;5.00;;;4.43;;
42854;SDS011;29183;48.038;14.346;2023-03-21T15:02:26;8.55;;;4.88;;
42854;SDS011;29183;48.038;14.346;2023-03-21T15:05:14;5.13;;;4.43;;
42854;SDS011;29183;48.038;14.346;2023-03-21T15:07:56;6.70;;;5.55;;
42854;SDS011;29183;48.038;14.346;2023-03-21T15:10:29;5.55;;;4.82;;
42854;SDS011;29183;48.038;14.346;2023-03-21T15:13:18;6.45;;;4.57;;
42854;SDS011;29183;48.038;14.346;2023-03-21T15:15:54;6.55;;;4.40;;
42854;SDS011;29183;48.038;14.346;2023-03-21T15:18:37;11.48;;;5.32;;
42854;SDS011;29183;48.038;14.346;2023-03-21T15:21:29;6.55;;;4.88;;
42854;SDS011;29183;48.038;14.346;2023-03-21T15:24:34;8.77;;;5.05;;
42854;SDS011;29183;48.038;14.346;2023-03-21T15:26:59;5.97;;;4.43;;
42854;SDS011;29183;48.038;14.346;2023-03-21T15:32:13;5.97;;;4.78;;
42854;SDS011;29183;48.038;14.346;2023-03-21T15:34:43;5.00;;;4.50;;
42854;SDS011;29183;48.038;14.346;2023-03-21T15:37:15;5.00;;;4.50;;
42854;SDS011;29183;48.038;14.346;2023-03-21T15:45:12;5.43;;;4.60;;
42854;SDS011;29183;48.038;14.346;2023-03-21T15:50:56;7.47;;;4.68;;
42854;SDS011;29183;48.038;14.346;2023-03-21T15:53:26;5.75;;;4.47;;
42854;SDS011;29183;48.038;14.346;2023-03-21T16:02:15;7.10;;;4.30;;
42854;SDS011;29183;48.038;14.346;2023-03-21T16:05:16;12.23;;;4.88;;
42854;SDS011;29183;48.038;14.346;2023-03-21T16:07:51;5.72;;;4.45;;
42854;SDS011;29183;48.038;14.346;2023-03-21T16:10:35;12.65;;;4.85;;
42854;SDS011;29183;48.038;14.346;2023-03-21T16:13:06;8.68;;;4.30;;
42854;SDS011;29183;48.038;14.346;2023-03-21T16:15:39;7.03;;;4.40;;
42854;SDS011;29183;48.038;14.346;2023-03-21T16:21:05;7.85;;;4.45;;
42854;SDS011;29183;48.038;14.346;2023-03-21T16:23:33;10.80;;;5.22;;
42854;SDS011;29183;48.038;14.346;2023-03-21T16:26:01;10.00;;;4.32;;
42854;SDS011;29183;48.038;14.346;2023-03-21T16:28:32;5.78;;;4.22;;
42854;SDS011;29183;48.038;14.346;2023-03-21T16:34:02;10.05;;;4.47;;
42854;SDS011;29183;48.038;14.346;2023-03-21T16:36:34;8.00;;;4.55;;
42854;SDS011;29183;48.038;14.346;2023-03-21T16:39:18;8.80;;;5.60;;
42854;SDS011;29183;48.038;14.346;2023-03-21T16:44:26;10.07;;;5.80;;
42854;SDS011;29183;48.038;14.346;2023-03-21T16:46:56;7.50;;;4.38;;
42854;SDS011;29183;48.038;14.346;2023-03-21T16:49:27;8.70;;;5.15;;
42854;SDS011;29183;48.038;14.346;2023-03-21T16:51:55;6.75;;;5.28;;
42854;SDS011;29183;48.038;14.346;2023-03-21T16:54:23;6.70;;;4.93;;
42854;SDS011;29183;48.038;14.346;2023-03-21T16:56:53;9.15;;;5.40;;
42854;SDS011;29183;48.038;14.346;2023-03-21T16:59:22;7.43;;;5.25;;
42854;SDS011;29183;48.038;14.346;2023-03-21T17:02:07;13.70;;;8.70;;
42854;SDS011;29183;48.038;14.346;2023-03-21T17:04:40;18.45;;;10.80;;
42854;SDS011;29183;48.038;14.346;2023-03-21T17:07:13;13.30;;;8.38;;
42854;SDS011;29183;48.038;14.346;2023-03-21T17:09:49;42.47;;;23.23;;
42854;SDS011;29183;48.038;14.346;2023-03-21T17:12:21;14.65;;;7.38;;
42854;SDS011;29183;48.038;14.346;2023-03-21T17:14:49;7.22;;;3.90;;
42854;SDS011;29183;48.038;14.346;2023-03-21T17:17:31;5.30;;;3.53;;
42854;SDS011;29183;48.038;14.346;2023-03-21T17:29:28;9.30;;;5.80;;
42854;SDS011;29183;48.038;14.346;2023-03-21T17:31:59;5.40;;;3.78;;
42854;SDS011;29183;48.038;14.346;2023-03-21T17:34:42;5.03;;;3.90;;
42854;SDS011;29183;48.038;14.346;2023-03-21T17:37:13;4.60;;;3.50;;
42854;SDS011;29183;48.038;14.346;2023-03-21T17:39:41;12.40;;;5.22;;
42854;SDS011;29183;48.038;14.346;2023-03-21T17:42:20;10.25;;;5.03;;
42854;SDS011;29183;48.038;14.346;2023-03-21T17:51:19;8.05;;;4.25;;
42854;SDS011;29183;48.038;14.346;2023-03-21T17:54:00;16.05;;;4.88;;
42854;SDS011;29183;48.038;14.346;2023-03-21T17:56:31;7.57;;;4.95;;
42854;SDS011;29183;48.038;14.346;2023-03-21T18:02:39;7.55;;;4.60;;
42854;SDS011;29183;48.038;14.346;2023-03-21T18:05:14;8.20;;;4.30;;
42854;SDS011;29183;48.038;14.346;2023-03-21T18:11:12;7.70;;;4.60;;
42854;SDS011;29183;48.038;14.346;2023-03-21T18:13:49;6.82;;;4.85;;
42854;SDS011;29183;48.038;14.346;2023-03-21T18:17:10;7.32;;;4.93;;
42854;SDS011;29183;48.038;14.346;2023-03-21T18:20:13;6.70;;;4.40;;
42854;SDS011;29183;48.038;14.346;2023-03-21T18:29:24;10.38;;;5.20;;
42854;SDS011;29183;48.038;14.346;2023-03-21T18:32:14;9.35;;;5.32;;
42854;SDS011;29183;48.038;14.346;2023-03-21T18:34:43;9.02;;;5.07;;
42854;SDS011;29183;48.038;14.346;2023-03-21T18:37:26;7.93;;;5.38;;
42854;SDS011;29183;48.038;14.346;2023-03-21T18:40:09;7.50;;;5.53;;
42854;SDS011;29183;48.038;14.346;2023-03-21T18:42:49;8.75;;;5.45;;
42854;SDS011;29183;48.038;14.346;2023-03-21T18:45:42;13.75;;;5.95;;
42854;SDS011;29183;48.038;14.346;2023-03-21T18:51:41;8.55;;;6.45;;
42854;SDS011;29183;48.038;14.346;2023-03-21T18:54:27;25.27;;;14.60;;
42854;SDS011;29183;48.038;14.346;2023-03-21T18:57:33;35.72;;;14.32;;
42854;SDS011;29183;48.038;14.346;2023-03-21T19:00:15;30.63;;;14.75;;
42854;SDS011;29183;48.038;14.346;2023-03-21T19:05:51;24.55;;;12.60;;
42854;SDS011;29183;48.038;14.346;2023-03-21T19:08:22;28.35;;;12.88;;
42854;SDS011;29183;48.038;14.346;2023-03-21T19:10:50;18.58;;;10.95;;
42854;SDS011;29183;48.038;14.346;2023-03-21T19:16:29;14.93;;;9.82;;
42854;SDS011;29183;48.038;14.346;2023-03-21T19:19:26;15.38;;;9.10;;
42854;SDS011;29183;48.038;14.346;2023-03-21T19:22:02;17.92;;;10.48;;
42854;SDS011;29183;48.038;14.346;2023-03-21T19:24:36;15.82;;;9.65;;
42854;SDS011;29183;48.038;14.346;2023-03-21T19:27:06;17.27;;;9.30;;
42854;SDS011;29183;48.038;14.346;2023-03-21T19:29:40;13.13;;;9.43;;
42854;SDS011;29183;48.038;14.346;2023-03-21T19:35:08;12.18;;;8.95;;
42854;SDS011;29183;48.038;14.346;2023-03-21T19:40:51;14.75;;;9.38;;
42854;SDS011;29183;48.038;14.346;2023-03-21T19:47:09;15.93;;;10.07;;
42854;SDS011;29183;48.038;14.346;2023-03-21T19:53:21;14.40;;;9.32;;
42854;SDS011;29183;48.038;14.346;2023-03-21T20:02:46;20.02;;;8.85;;
42854;SDS011;29183;48.038;14.346;2023-03-21T20:05:16;15.85;;;9.73;;
42854;SDS011;29183;48.038;14.346;2023-03-21T20:07:47;15.68;;;9.18;;
42854;SDS011;29183;48.038;14.346;2023-03-21T20:16:15;12.05;;;8.05;;
42854;SDS011;29183;48.038;14.346;2023-03-21T20:18:49;12.75;;;8.70;;
42854;SDS011;29183;48.038;14.346;2023-03-21T20:21:19;12.75;;;8.75;;
42854;SDS011;29183;48.038;14.346;2023-03-21T20:24:09;17.10;;;9.88;;
42854;SDS011;29183;48.038;14.346;2023-03-21T20:26:41;13.48;;;9.07;;
42854;SDS011;29183;48.038;14.346;2023-03-21T20:29:24;14.27;;;9.05;;
42854;SDS011;29183;48.038;14.346;2023-03-21T20:32:26;14.65;;;9.00;;
42854;SDS011;29183;48.038;14.346;2023-03-21T20:35:15;13.18;;;9.18;;
42854;SDS011;29183;48.038;14.346;2023-03-21T20:38:08;17.38;;;9.50;;
42854;SDS011;29183;48.038;14.346;2023-03-21T20:40:38;16.83;;;10.07;;
42854;SDS011;29183;48.038;14.346;2023-03-21T20:43:09;13.65;;;8.93;;
42854;SDS011;29183;48.038;14.346;2023-03-21T20:46:01;14.63;;;8.82;;
42854;SDS011;29183;48.038;14.346;2023-03-21T20:48:30;15.73;;;8.75;;
42854;SDS011;29183;48.038;14.346;2023-03-21T20:54:02;15.18;;;9.57;;
42854;SDS011;29183;48.038;14.346;2023-03-21T20:56:38;16.00;;;9.27;;
42854;SDS011;29183;48.038;14.346;2023-03-21T20:59:14;17.08;;;8.88;;
42854;SDS011;29183;48.038;14.346;2023-03-21T21:02:09;15.27;;;9.35;;
42854;SDS011;29183;48.038;14.346;2023-03-21T21:04:43;13.98;;;8.82;;
42854;SDS011;29183;48.038;14.346;2023-03-21T21:07:34;16.40;;;9.07;;
42854;SDS011;29183;48.038;14.346;2023-03-21T21:10:21;17.23;;;10.07;;
42854;SDS011;29183;48.038;14.346;2023-03-21T21:13:11;15.82;;;9.73;;
42854;SDS011;29183;48.038;14.346;2023-03-21T21:15:40;16.08;;;9.57;;
42854;SDS011;29183;48.038;14.346;2023-03-21T21:18:11;13.73;;;8.95;;
42854;SDS011;29183;48.038;14.346;2023-03-21T21:20:52;16.98;;;9.93;;
42854;SDS011;29183;48.038;14.346;2023-03-21T21:23:22;14.90;;;8.77;;
42854;SDS011;29183;48.038;14.346;2023-03-21T21:25:55;12.00;;;8.77;;
42854;SDS011;29183;48.038;14.346;2023-03-21T21:31:47;18.55;;;9.60;;
42854;SDS011;29183;48.038;14.346;2023-03-21T21:42:53;15.75;;;10.48;;
42854;SDS011;29183;48.038;14.346;2023-03-21T21:45:32;16.90;;;10.10;;
42854;SDS011;29183;48.038;14.346;2023-03-21T21:48:00;16.02;;;10.25;;
42854;SDS011;29183;48.038;14.346;2023-03-21T21:50:30;16.52;;;9.27;;
42854;SDS011;29183;48.038;14.346;2023-03-21T21:52:58;18.35;;;9.57;;
42854;SDS011;29183;48.038;14.346;2023-03-21T21:55:35;12.98;;;9.20;;
42854;SDS011;29183;48.038;14.346;2023-03-21T21:58:06;13.60;;;9.57;;
42854;SDS011;29183;48.038;14.346;2023-03-21T22:00:37;16.13;;;8.88;;
42854;SDS011;29183;48.038;14.346;2023-03-21T22:06:05;14.52;;;9.85;;
42854;SDS011;29183;48.038;14.346;2023-03-21T22:12:12;16.88;;;10.18;;
42854;SDS011;29183;48.038;14.346;2023-03-21T22:14:49;18.00;;;9.07;;
42854;SDS011;29183;48.038;14.346;2023-03-21T22:17:31;12.43;;;7.80;;
42854;SDS011;29183;48.038;14.346;2023-03-21T22:20:00;16.20;;;9.32;;
42854;SDS011;29183;48.038;14.346;2023-03-21T22:22:32;12.50;;;8.05;;
42854;SDS011;29183;48.038;14.346;2023-03-21T22:25:00;14.77;;;8.50;;
42854;SDS011;29183;48.038;14.346;2023-03-21T22:27:30;12.93;;;8.68;;
42854;SDS011;29183;48.038;14.346;2023-03-21T22:30:00;11.93;;;7.97;;
42854;SDS011;29183;48.038;14.346;2023-03-21T22:32:39;12.55;;;8.02;;
42854;SDS011;29183;48.038;14.346;2023-03-21T22:35:15;10.25;;;7.28;;
42854;SDS011;29183;48.038;14.346;2023-03-21T22:37:44;10.02;;;7.65;;
42854;SDS011;29183;48.038;14.346;2023-03-21T22:40:14;12.57;;;8.13;;
42854;SDS011;29183;48.038;14.346;2023-03-21T22:45:24;9.32;;;7.15;;
42854;SDS011;29183;48.038;14.346;2023-03-21T22:47:53;14.25;;;7.35;;
42854;SDS011;29183;48.038;14.346;2023-03-21T22:50:32;12.07;;;7.35;;
42854;SDS011;29183;48.038;14.346;2023-03-21T22:53:00;10.63;;;7.32;;
42854;SDS011;29183;48.038;14.346;2023-03-21T22:55:32;15.05;;;7.32;;
42854;SDS011;29183;48.038;14.346;2023-03-21T22:58:02;13.77;;;7.88;;
42854;SDS011;29183;48.038;14.346;2023-03-21T23:03:09;10.52;;;6.95;;
42854;SDS011;29183;48.038;14.346;2023-03-21T23:05:41;9.15;;;6.07;;
42854;SDS011;29183;48.038;14.346;2023-03-21T23:08:11;15.02;;;7.63;;
42854;SDS011;29183;48.038;14.346;2023-03-21T23:10:39;9.77;;;6.43;;
42854;SDS011;29183;48.038;14.346;2023-03-21T23:16:11;10.82;;;6.82;;
42854;SDS011;29183;48.038;14.346;2023-03-21T23:18:49;9.38;;;6.22;;
42854;SDS011;29183;48.038;14.346;2023-03-21T23:21:19;8.85;;;6.22;;
42854;SDS011;29183;48.038;14.346;2023-03-21T23:23:56;11.25;;;7.35;;
42854;SDS011;29183;48.038;14.346;2023-03-21T23:26:26;12.20;;;6.82;;
42854;SDS011;29183;48.038;14.346;2023-03-21T23:29:01;8.18;;;5.90;;
42854;SDS011;29183;48.038;14.346;2023-03-21T23:31:29;8.80;;;6.20;;
42854;SDS011;29183;48.038;14.346;2023-03-21T23:39:09;11.00;;;6.90;;
42854;SDS011;29183;48.038;14.346;2023-03-21T23:41:40;8.07;;;6.22;;
42854;SDS011;29183;48.038;14.346;2023-03-21T23:44:12;7.63;;;6.00;;
42854;SDS011;29183;48.038;14.346;2023-03-21T23:49:18;8.70;;;6.22;;
42854;SDS011;29183;48.038;14.346;2023-03-21T23:51:51;10.50;;;6.97;;
42854;SDS011;29183;48.038;14.346;2023-03-21T23:54:21;8.45;;;5.70;;
42854;SDS011;29183;48.038;14.346;2023-03-21T23:59:23;11.93;;;5.43;;
